createdAt,value
2016-10-03T00:00:33.151Z,12.9
2016-10-03T00:01:33.166Z,12.87
2016-10-03T00:02:33.197Z,12.9
2016-10-03T00:03:33.201Z,12.8
2016-10-03T00:04:33.233Z,12.78
2016-10-03T00:05:33.242Z,12.79
2016-10-03T00:06:33.274Z,12.73
2016-10-03T00:07:33.281Z,12.75
2016-10-03T00:08:33.292Z,12.86
2016-10-03T00:09:33.303Z,12.76
2016-10-03T00:10:33.324Z,12.8
2016-10-03T00:11:33.342Z,12.85
2016-10-03T00:12:33.374Z,12.76
2016-10-03T00:13:33.385Z,12.9
2016-10-03T00:14:33.398Z,12.82
2016-10-03T00:15:33.409Z,12.87
2016-10-03T00:16:33.427Z,12.85
2016-10-03T00:17:33.455Z,12.83
2016-10-03T00:18:33.467Z,12.82
2016-10-03T00:19:33.479Z,12.79
2016-10-03T00:20:33.512Z,12.82
2016-10-03T00:21:33.526Z,12.82
2016-10-03T00:22:33.542Z,12.8
2016-10-03T00:23:33.558Z,12.79
2016-10-03T00:24:33.574Z,12.83
2016-10-03T00:25:33.589Z,12.67
2016-10-03T00:26:33.618Z,12.78
2016-10-03T00:27:33.625Z,12.79
2016-10-03T00:28:33.652Z,12.79
2016-10-03T00:29:33.655Z,12.86
2016-10-03T00:30:33.686Z,12.9
2016-10-03T00:31:33.697Z,12.86
2016-10-03T00:32:33.713Z,12.94
2016-10-03T00:33:33.732Z,12.83
2016-10-03T00:34:33.753Z,12.86
2016-10-03T00:35:33.770Z,12.8
2016-10-03T00:36:33.789Z,12.78
2016-10-03T00:37:33.813Z,12.83
2016-10-03T00:38:33.819Z,12.87
2016-10-03T00:39:33.849Z,12.91
2016-10-03T00:40:33.868Z,12.86
2016-10-03T00:41:33.886Z,12.87
2016-10-03T00:42:33.909Z,12.91
2016-10-03T00:43:33.905Z,12.9
2016-10-03T00:44:33.938Z,12.85
2016-10-03T00:45:33.960Z,12.83
2016-10-03T00:46:33.965Z,12.9
2016-10-03T00:47:33.980Z,12.87
2016-10-03T00:48:34.006Z,12.91
2016-10-03T00:49:34.019Z,12.87
2016-10-03T00:50:34.036Z,12.78
2016-10-03T00:51:34.052Z,12.75
2016-10-03T00:52:34.074Z,12.79
2016-10-03T00:53:34.086Z,12.9
2016-10-03T00:54:34.100Z,12.8
2016-10-03T00:55:34.125Z,12.76
2016-10-03T00:56:34.140Z,12.87
2016-10-03T00:57:34.163Z,12.79
2016-10-03T00:58:34.179Z,12.87
2016-10-03T00:59:34.204Z,12.82
2016-10-03T01:00:34.224Z,12.79
2016-10-03T01:01:34.234Z,12.7
2016-10-03T01:02:34.246Z,12.78
2016-10-03T01:03:34.261Z,12.67
2016-10-03T01:04:34.291Z,12.75
2016-10-03T01:05:34.297Z,12.68
2016-10-03T01:06:34.329Z,12.6
2016-10-03T01:07:34.348Z,12.7
2016-10-03T01:08:34.352Z,12.62
2016-10-03T01:09:34.379Z,12.73
2016-10-03T01:10:34.392Z,12.64
2016-10-03T01:11:34.408Z,12.55
2016-10-03T01:12:34.437Z,12.54
2016-10-03T01:13:34.440Z,12.53
2016-10-03T01:14:34.458Z,12.5
2016-10-03T01:15:34.481Z,12.57
2016-10-03T01:16:34.507Z,12.43
2016-10-03T01:17:34.499Z,12.43
2016-10-03T01:18:34.519Z,12.43
2016-10-03T01:19:34.546Z,12.37
2016-10-03T01:20:34.558Z,12.45
2016-10-03T01:21:34.572Z,12.43
2016-10-03T01:22:34.596Z,12.4
2016-10-03T01:23:34.619Z,12.39
2016-10-03T01:24:34.651Z,12.28
2016-10-03T01:25:34.652Z,12.31
2016-10-03T01:26:34.676Z,12.29
2016-10-03T01:27:34.684Z,12.17
2016-10-03T01:28:34.705Z,12.17
2016-10-03T01:29:34.715Z,12.09
2016-10-03T01:30:34.740Z,12.06
2016-10-03T01:31:34.763Z,12.15
2016-10-03T01:32:34.793Z,12.09
2016-10-03T01:33:34.794Z,12.09
2016-10-03T01:34:34.805Z,12.1
2016-10-03T01:35:34.828Z,12.04
2016-10-03T01:36:34.851Z,12.04
2016-10-03T01:37:34.854Z,11.97
2016-10-03T01:38:34.874Z,11.99
2016-10-03T01:39:34.901Z,11.97
2016-10-03T01:40:34.913Z,11.9
2016-10-03T01:41:34.918Z,11.9
2016-10-03T01:42:34.959Z,11.9
2016-10-03T01:43:34.965Z,11.84
2016-10-03T01:44:34.987Z,11.88
2016-10-03T01:45:35.008Z,11.88
2016-10-03T01:46:35.027Z,11.9
2016-10-03T01:47:35.044Z,11.84
2016-10-03T01:48:35.061Z,11.9
2016-10-03T01:49:35.071Z,11.91
2016-10-03T01:50:35.094Z,11.9
2016-10-03T01:51:35.111Z,11.87
2016-10-03T01:52:35.144Z,11.88
2016-10-03T01:53:35.135Z,11.81
2016-10-03T01:54:35.156Z,11.83
2016-10-03T01:55:35.194Z,11.88
2016-10-03T01:56:35.195Z,11.84
2016-10-03T01:57:35.214Z,11.86
2016-10-03T01:58:35.225Z,11.94
2016-10-03T01:59:35.242Z,11.94
2016-10-03T02:00:35.247Z,11.9
2016-10-03T02:01:35.280Z,12.03
2016-10-03T02:02:35.311Z,11.87
2016-10-03T02:03:35.322Z,11.86
2016-10-03T02:04:35.331Z,11.88
2016-10-03T02:05:35.353Z,11.83
2016-10-03T02:06:35.356Z,11.88
2016-10-03T02:07:35.385Z,11.8
2016-10-03T02:08:35.404Z,11.8
2016-10-03T02:09:35.414Z,11.88
2016-10-03T02:10:35.428Z,11.73
2016-10-03T02:11:35.449Z,11.84
2016-10-03T02:12:35.479Z,11.75
2016-10-03T02:13:35.480Z,11.7
2016-10-03T02:14:35.502Z,11.75
2016-10-03T02:15:35.528Z,11.75
2016-10-03T02:16:35.525Z,11.7
2016-10-03T02:17:35.562Z,11.7
2016-10-03T02:18:35.566Z,11.68
2016-10-03T02:19:35.584Z,11.57
2016-10-03T02:20:35.609Z,11.62
2016-10-03T02:21:35.626Z,11.48
2016-10-03T02:22:35.634Z,11.57
2016-10-03T02:23:35.668Z,11.55
2016-10-03T02:24:35.673Z,11.57
2016-10-03T02:25:35.681Z,11.55
2016-10-03T02:26:35.702Z,11.52
2016-10-03T02:27:35.734Z,11.54
2016-10-03T02:28:35.736Z,11.52
2016-10-03T02:29:35.771Z,11.5
2016-10-03T02:30:35.777Z,11.45
2016-10-03T02:31:35.809Z,11.45
2016-10-03T02:32:35.818Z,11.45
2016-10-03T02:33:35.829Z,11.45
2016-10-03T02:34:35.850Z,11.47
2016-10-03T02:35:35.865Z,11.41
2016-10-03T02:36:35.886Z,11.37
2016-10-03T02:37:35.894Z,11.25
2016-10-03T02:38:35.916Z,11.26
2016-10-03T02:39:35.934Z,11.35
2016-10-03T02:40:35.949Z,11.35
2016-10-03T02:41:35.960Z,11.23
2016-10-03T02:42:35.975Z,11.22
2016-10-03T02:43:35.999Z,11.17
2016-10-03T02:44:36.013Z,11.14
2016-10-03T02:45:36.033Z,11.1
2016-10-03T02:46:36.046Z,11.1
2016-10-03T02:47:36.060Z,11
2016-10-03T02:48:36.073Z,11
2016-10-03T02:49:36.100Z,10.99
2016-10-03T02:50:36.111Z,10.96
2016-10-03T02:51:36.141Z,10.96
2016-10-03T02:52:36.144Z,11
2016-10-03T02:53:36.169Z,11.04
2016-10-03T02:54:36.189Z,11.05
2016-10-03T02:55:36.203Z,10.92
2016-10-03T02:56:36.212Z,10.97
2016-10-03T02:57:36.235Z,10.94
2016-10-03T02:58:36.243Z,10.96
2016-10-03T02:59:36.278Z,11.02
2016-10-03T03:00:36.290Z,10.93
2016-10-03T03:01:36.306Z,10.93
2016-10-03T03:02:36.322Z,10.9
2016-10-03T03:03:36.334Z,10.92
2016-10-03T03:04:36.342Z,10.94
2016-10-03T03:05:36.368Z,11.02
2016-10-03T03:06:36.384Z,10.94
2016-10-03T03:07:36.407Z,11.02
2016-10-03T03:08:36.412Z,11.05
2016-10-03T03:09:36.430Z,10.99
2016-10-03T03:10:36.447Z,10.99
2016-10-03T03:11:36.471Z,11.07
2016-10-03T03:12:36.491Z,11
2016-10-03T03:13:36.495Z,11.07
2016-10-03T03:14:36.523Z,11.02
2016-10-03T03:15:36.539Z,11.07
2016-10-03T03:16:36.561Z,11.07
2016-10-03T03:17:36.574Z,10.99
2016-10-03T03:18:36.580Z,11.15
2016-10-03T03:19:36.595Z,11.02
2016-10-03T03:20:36.625Z,11.04
2016-10-03T03:21:36.626Z,11.1
2016-10-03T03:22:36.654Z,11.14
2016-10-03T03:23:36.663Z,11.08
2016-10-03T03:24:36.688Z,11.11
2016-10-03T03:25:36.707Z,11.15
2016-10-03T03:26:36.735Z,11.26
2016-10-03T03:27:36.742Z,11.17
2016-10-03T03:28:36.766Z,11.19
2016-10-03T03:29:36.771Z,11.1
2016-10-03T03:30:36.799Z,11.05
2016-10-03T03:31:36.819Z,11.04
2016-10-03T03:32:36.831Z,11.14
2016-10-03T03:33:36.861Z,11.07
2016-10-03T03:34:36.851Z,10.99
2016-10-03T03:35:36.870Z,11.02
2016-10-03T03:36:36.885Z,11.12
2016-10-03T03:37:36.911Z,10.99
2016-10-03T03:38:36.932Z,11.07
2016-10-03T03:39:36.966Z,11.14
2016-10-03T03:40:36.970Z,11.11
2016-10-03T03:41:36.977Z,11.1
2016-10-03T03:42:37.004Z,11.19
2016-10-03T03:43:37.013Z,11.14
2016-10-03T03:44:37.034Z,11.1
2016-10-03T03:45:37.050Z,11.14
2016-10-03T03:46:37.057Z,11.05
2016-10-03T03:47:37.088Z,11.11
2016-10-03T03:48:37.081Z,11.12
2016-10-03T03:49:37.114Z,11.12
2016-10-03T03:50:37.129Z,11.1
2016-10-03T03:51:37.145Z,11.11
2016-10-03T03:52:37.167Z,11.17
2016-10-03T03:53:37.177Z,11.15
2016-10-03T03:54:37.202Z,11.14
2016-10-03T03:55:37.227Z,11.19
2016-10-03T03:56:37.241Z,11.19
2016-10-03T03:57:37.256Z,11.15
2016-10-03T03:58:37.259Z,11.19
2016-10-03T03:59:37.275Z,11.23
2016-10-03T04:01:37.302Z,11.3
2016-10-03T04:02:37.322Z,11.35
2016-10-03T04:03:37.324Z,11.3
2016-10-03T04:04:37.349Z,11.4
2016-10-03T04:05:37.374Z,11.32
2016-10-03T04:06:37.390Z,11.36
2016-10-03T04:07:37.412Z,11.33
2016-10-03T04:08:37.419Z,11.3
2016-10-03T04:09:37.439Z,11.22
2016-10-03T04:10:37.455Z,11.26
2016-10-03T04:11:37.475Z,11.32
2016-10-03T04:12:37.520Z,11.29
2016-10-03T04:13:37.513Z,11.37
2016-10-03T04:14:37.534Z,11.43
2016-10-03T04:15:37.544Z,11.4
2016-10-03T04:16:37.559Z,11.25
2016-10-03T04:17:37.575Z,11.29
2016-10-03T04:18:37.599Z,11.35
2016-10-03T04:19:37.616Z,11.37
2016-10-03T04:20:37.633Z,11.36
2016-10-03T04:21:37.650Z,11.36
2016-10-03T04:22:37.678Z,11.36
2016-10-03T04:23:37.676Z,11.51
2016-10-03T04:24:37.711Z,11.44
2016-10-03T04:25:37.726Z,11.43
2016-10-03T04:26:37.740Z,11.5
2016-10-03T04:27:37.740Z,11.43
2016-10-03T04:28:37.772Z,11.43
2016-10-03T04:29:37.789Z,11.52
2016-10-03T04:30:37.807Z,11.44
2016-10-03T04:31:37.812Z,11.41
2016-10-03T04:32:37.851Z,11.4
2016-10-03T04:33:37.842Z,11.43
2016-10-03T04:34:37.863Z,11.41
2016-10-03T04:35:37.890Z,11.4
2016-10-03T04:36:37.891Z,11.41
2016-10-03T04:37:37.928Z,11.4
2016-10-03T04:38:37.942Z,11.35
2016-10-03T04:39:37.972Z,11.4
2016-10-03T04:40:37.968Z,11.35
2016-10-03T04:41:37.986Z,11.36
2016-10-03T04:42:38.001Z,11.36
2016-10-03T04:43:38.037Z,11.35
2016-10-03T04:44:38.036Z,11.29
2016-10-03T04:45:38.056Z,11.44
2016-10-03T04:46:38.066Z,11.35
2016-10-03T04:47:38.111Z,11.37
2016-10-03T04:48:38.119Z,11.32
2016-10-03T04:49:38.121Z,11.25
2016-10-03T04:50:38.151Z,11.32
2016-10-03T04:51:38.166Z,11.25
2016-10-03T04:52:38.179Z,11.4
2016-10-03T04:53:38.197Z,11.36
2016-10-03T04:54:38.229Z,11.33
2016-10-03T04:55:38.220Z,11.32
2016-10-03T04:56:38.258Z,11.32
2016-10-03T04:57:38.282Z,11.33
2016-10-03T04:58:38.298Z,11.35
2016-10-03T04:59:38.316Z,11.3
2016-10-03T05:00:38.334Z,11.36
2016-10-03T05:01:38.330Z,11.3
2016-10-03T05:02:38.362Z,11.3
2016-10-03T05:03:38.379Z,11.36
2016-10-03T05:04:38.397Z,11.35
2016-10-03T05:05:38.398Z,11.35
2016-10-03T05:06:38.422Z,11.36
2016-10-03T05:07:38.455Z,11.4
2016-10-03T05:08:38.462Z,11.33
2016-10-03T05:09:38.469Z,11.35
2016-10-03T05:10:38.503Z,11.36
2016-10-03T05:11:38.508Z,11.25
2016-10-03T05:12:38.533Z,11.32
2016-10-03T05:13:38.538Z,11.17
2016-10-03T05:14:38.572Z,11.12
2016-10-03T05:15:38.574Z,11.17
2016-10-03T05:16:38.610Z,11.18
2016-10-03T05:17:38.621Z,11.17
2016-10-03T05:18:38.639Z,11.17
2016-10-03T05:19:38.653Z,11.17
2016-10-03T05:20:38.668Z,11.18
2016-10-03T05:21:38.678Z,11.23
2016-10-03T05:23:38.710Z,11.18
2016-10-03T05:24:38.734Z,11.17
2016-10-03T05:25:38.764Z,11.12
2016-10-03T05:26:38.772Z,11.19
2016-10-03T05:27:38.799Z,11.15
2016-10-03T05:28:38.807Z,11.08
2016-10-03T05:29:38.818Z,11
2016-10-03T05:30:38.838Z,11.1
2016-10-03T05:31:38.837Z,11.07
2016-10-03T05:32:38.889Z,11.1
2016-10-03T05:33:38.890Z,11.08
2016-10-03T05:34:38.903Z,11.11
2016-10-03T05:35:38.912Z,11.15
2016-10-03T05:36:38.942Z,11.22
2016-10-03T05:37:38.945Z,11.22
2016-10-03T05:38:38.982Z,11.22
2016-10-03T05:39:38.993Z,11.26
2016-10-03T05:40:39.021Z,11.19
2016-10-03T05:41:39.034Z,11.18
2016-10-03T05:42:39.030Z,11.19
2016-10-03T05:43:39.065Z,11.12
2016-10-03T05:44:39.072Z,11.23
2016-10-03T05:45:39.100Z,11.23
2016-10-03T05:46:39.111Z,11.26
2016-10-03T05:47:39.131Z,11.29
2016-10-03T05:48:39.162Z,11.29
2016-10-03T05:49:39.162Z,11.29
2016-10-03T05:50:39.172Z,11.36
2016-10-03T05:51:39.196Z,11.33
2016-10-03T05:52:39.217Z,11.23
2016-10-03T05:53:39.244Z,11.29
2016-10-03T05:54:39.257Z,11.41
2016-10-03T05:55:39.259Z,11.41
2016-10-03T05:56:39.295Z,11.36
2016-10-03T05:57:39.294Z,11.45
2016-10-03T05:58:39.329Z,11.36
2016-10-03T05:59:39.344Z,11.32
2016-10-03T06:00:39.353Z,11.32
2016-10-03T06:01:39.366Z,11.35
2016-10-03T06:02:39.383Z,11.36
2016-10-03T06:03:39.405Z,11.37
2016-10-03T06:04:39.406Z,11.36
2016-10-03T06:05:39.460Z,11.41
2016-10-03T06:06:39.446Z,11.35
2016-10-03T06:07:39.471Z,11.29
2016-10-03T06:08:39.492Z,11.22
2016-10-03T06:09:39.502Z,11.18
2016-10-03T06:10:39.537Z,11.27
2016-10-03T06:11:39.541Z,11.19
2016-10-03T06:12:39.559Z,11.17
2016-10-03T06:13:39.572Z,11.26
2016-10-03T06:14:39.586Z,11.26
2016-10-03T06:15:39.620Z,11.25
2016-10-03T06:16:39.641Z,11.22
2016-10-03T06:17:39.654Z,11.23
2016-10-03T06:18:39.664Z,11.25
2016-10-03T06:19:39.679Z,11.27
2016-10-03T06:20:39.693Z,11.29
2016-10-03T06:21:39.704Z,11.25
2016-10-03T06:22:39.722Z,11.27
2016-10-03T06:23:39.744Z,11.3
2016-10-03T06:24:39.759Z,11.36
2016-10-03T06:25:39.787Z,11.35
2016-10-03T06:26:39.807Z,11.3
2016-10-03T06:27:39.828Z,11.33
2016-10-03T06:28:39.836Z,11.35
2016-10-03T06:29:39.846Z,11.41
2016-10-03T06:30:39.848Z,11.36
2016-10-03T06:31:39.885Z,11.36
2016-10-03T06:32:39.893Z,11.25
2016-10-03T06:33:39.915Z,11.32
2016-10-03T06:34:39.936Z,11.36
2016-10-03T06:35:39.941Z,11.44
2016-10-03T06:36:39.972Z,11.32
2016-10-03T06:37:39.998Z,11.29
2016-10-03T06:38:40.001Z,11.36
2016-10-03T06:39:40.018Z,11.37
2016-10-03T06:40:40.035Z,11.37
2016-10-03T06:41:40.051Z,11.43
2016-10-03T06:42:40.074Z,11.36
2016-10-03T06:43:40.084Z,11.37
2016-10-03T06:44:40.090Z,11.36
2016-10-03T06:45:40.126Z,11.45
2016-10-03T06:46:40.140Z,11.45
2016-10-03T06:47:40.165Z,11.36
2016-10-03T06:48:40.180Z,11.44
2016-10-03T06:49:40.194Z,11.4
2016-10-03T06:50:40.209Z,11.45
2016-10-03T06:51:40.226Z,11.45
2016-10-03T06:52:40.238Z,11.43
2016-10-03T06:53:40.266Z,11.41
2016-10-03T06:54:40.280Z,11.47
2016-10-03T06:55:40.277Z,11.37
2016-10-03T06:56:40.304Z,11.48
2016-10-03T06:57:40.341Z,11.36
2016-10-03T06:58:40.344Z,11.35
2016-10-03T06:59:40.359Z,11.29
2016-10-03T07:00:40.372Z,11.44
2016-10-03T07:01:40.388Z,11.41
2016-10-03T07:02:40.399Z,11.41
2016-10-03T07:03:40.443Z,11.41
2016-10-03T07:04:40.447Z,11.48
2016-10-03T07:05:40.475Z,11.41
2016-10-03T07:06:40.477Z,11.45
2016-10-03T07:07:40.480Z,11.4
2016-10-03T07:08:40.518Z,11.41
2016-10-03T07:09:40.541Z,11.43
2016-10-03T07:10:40.541Z,11.44
2016-10-03T07:11:40.573Z,11.33
2016-10-03T07:12:40.573Z,11.33
2016-10-03T07:13:40.581Z,11.44
2016-10-03T07:14:40.617Z,11.4
2016-10-03T07:15:40.631Z,11.43
2016-10-03T07:16:40.634Z,11.44
2016-10-03T07:17:40.660Z,11.55
2016-10-03T07:18:40.671Z,11.51
2016-10-03T07:19:40.696Z,11.47
2016-10-03T07:20:40.703Z,11.48
2016-10-03T07:21:40.737Z,11.44
2016-10-03T07:22:40.743Z,11.43
2016-10-03T07:23:40.775Z,11.45
2016-10-03T07:24:40.792Z,11.36
2016-10-03T07:25:40.801Z,11.35
2016-10-03T07:26:40.821Z,11.47
2016-10-03T07:27:40.835Z,11.36
2016-10-03T07:28:40.856Z,11.41
2016-10-03T07:29:40.863Z,11.41
2016-10-03T07:30:40.880Z,11.37
2016-10-03T07:31:40.891Z,11.36
2016-10-03T07:32:40.912Z,11.36
2016-10-03T07:33:40.956Z,11.45
2016-10-03T07:34:40.956Z,11.41
2016-10-03T07:35:40.956Z,11.54
2016-10-03T07:36:40.998Z,11.48
2016-10-03T07:37:40.985Z,11.5
2016-10-03T07:38:41.023Z,11.47
2016-10-03T07:39:41.039Z,11.47
2016-10-03T07:40:41.064Z,11.44
2016-10-03T07:41:41.061Z,11.5
2016-10-03T07:42:41.094Z,11.54
2016-10-03T07:43:41.105Z,11.54
2016-10-03T07:44:41.120Z,11.57
2016-10-03T07:45:41.140Z,11.52
2016-10-03T07:46:41.166Z,11.63
2016-10-03T07:47:41.175Z,11.55
2016-10-03T07:48:41.187Z,11.69
2016-10-03T07:49:41.217Z,11.63
2016-10-03T07:50:41.225Z,11.63
2016-10-03T07:51:41.235Z,11.7
2016-10-03T07:52:41.259Z,11.69
2016-10-03T07:53:41.270Z,11.77
2016-10-03T07:54:41.296Z,11.66
2016-10-03T07:55:41.304Z,11.84
2016-10-03T07:56:41.324Z,11.75
2016-10-03T07:57:41.344Z,11.7
2016-10-03T07:58:41.339Z,11.75
2016-10-03T07:59:41.371Z,11.87
2016-10-03T08:00:41.375Z,11.78
2016-10-03T08:01:41.401Z,11.84
2016-10-03T08:02:41.424Z,11.83
2016-10-03T08:03:41.454Z,11.81
2016-10-03T08:04:41.452Z,11.94
2016-10-03T08:05:41.484Z,11.88
2016-10-03T08:06:41.496Z,11.88
2016-10-03T08:07:41.524Z,11.97
2016-10-03T08:08:41.514Z,12.1
2016-10-03T08:09:41.543Z,12.02
2016-10-03T08:10:41.559Z,12.07
2016-10-03T08:11:41.575Z,12.04
2016-10-03T08:12:41.603Z,12.12
2016-10-03T08:13:41.624Z,12.22
2016-10-03T08:14:41.641Z,12.2
2016-10-03T08:15:41.650Z,12.28
2016-10-03T08:16:41.663Z,12.31
2016-10-03T08:17:41.682Z,12.4
2016-10-03T08:18:41.696Z,12.36
2016-10-03T08:19:41.709Z,12.4
2016-10-03T08:20:41.733Z,12.53
2016-10-03T08:21:41.756Z,12.42
2016-10-03T08:22:41.776Z,12.54
2016-10-03T08:23:41.790Z,12.58
2016-10-03T08:24:41.802Z,12.42
2016-10-03T08:25:41.828Z,12.5
2016-10-03T08:26:41.850Z,12.42
2016-10-03T08:27:41.863Z,12.55
2016-10-03T08:28:41.863Z,12.6
2016-10-03T08:29:41.881Z,12.6
2016-10-03T08:30:41.921Z,12.54
2016-10-03T08:31:41.942Z,12.54
2016-10-03T08:32:41.960Z,12.54
2016-10-03T08:33:42.007Z,12.58
2016-10-03T08:34:41.985Z,12.58
2016-10-03T08:35:41.993Z,12.54
2016-10-03T08:36:42.036Z,12.47
2016-10-03T08:37:42.041Z,12.6
2016-10-03T08:38:42.051Z,12.58
2016-10-03T08:39:42.075Z,12.53
2016-10-03T08:40:42.084Z,12.57
2016-10-03T08:41:42.111Z,12.53
2016-10-03T08:42:42.121Z,12.5
2016-10-03T08:43:42.143Z,12.43
2016-10-03T08:44:42.154Z,12.36
2016-10-03T08:45:42.181Z,12.36
2016-10-03T08:46:42.199Z,12.36
2016-10-03T08:47:42.221Z,12.37
2016-10-03T08:48:42.223Z,12.32
2016-10-03T08:49:42.245Z,12.31
2016-10-03T08:50:42.283Z,12.25
2016-10-03T08:51:42.284Z,12.21
2016-10-03T08:52:42.306Z,12.24
2016-10-03T08:53:42.328Z,12.2
2016-10-03T08:54:42.330Z,12.24
2016-10-03T08:55:42.359Z,12.29
2016-10-03T08:56:42.381Z,12.29
2016-10-03T08:57:42.386Z,12.36
2016-10-03T08:58:42.417Z,12.45
2016-10-03T08:59:42.434Z,12.32
2016-10-03T09:00:42.455Z,12.4
2016-10-03T09:01:42.473Z,12.28
2016-10-03T09:02:42.490Z,12.42
2016-10-03T09:03:42.502Z,12.42
2016-10-03T09:04:42.514Z,12.49
2016-10-03T09:05:42.541Z,12.42
2016-10-03T09:06:42.554Z,12.45
2016-10-03T09:07:42.566Z,12.53
2016-10-03T09:08:42.588Z,12.45
2016-10-03T09:09:42.600Z,12.45
2016-10-03T09:10:42.634Z,12.53
2016-10-03T09:11:42.644Z,12.49
2016-10-03T09:12:42.660Z,12.53
2016-10-03T09:13:42.678Z,12.57
2016-10-03T09:14:42.702Z,12.55
2016-10-03T09:15:42.721Z,12.53
2016-10-03T09:16:42.762Z,12.55
2016-10-03T09:17:42.755Z,12.5
2016-10-03T09:18:42.819Z,12.54
2016-10-03T09:19:42.796Z,12.57
2016-10-03T09:20:42.793Z,12.61
2016-10-03T09:21:42.836Z,12.64
2016-10-03T09:22:42.827Z,12.62
2016-10-03T09:23:42.862Z,12.76
2016-10-03T09:24:42.881Z,12.91
2016-10-03T09:25:42.892Z,13.01
2016-10-03T09:26:42.927Z,13.12
2016-10-03T09:27:42.942Z,13.18
2016-10-03T09:28:42.970Z,13.27
2016-10-03T09:29:42.975Z,13.44
2016-10-03T09:30:43.002Z,13.54
2016-10-03T09:31:43.015Z,13.56
2016-10-03T09:32:43.025Z,13.65
2016-10-03T09:33:43.049Z,13.67
2016-10-03T09:34:43.062Z,13.71
2016-10-03T09:35:43.075Z,13.81
2016-10-03T09:36:43.106Z,14.08
2016-10-03T09:37:43.126Z,14.11
2016-10-03T09:38:43.128Z,14.1
2016-10-03T09:39:43.163Z,13.99
2016-10-03T09:40:43.184Z,14.22
2016-10-03T09:41:43.204Z,14.15
2016-10-03T09:42:43.211Z,14.28
2016-10-03T09:43:43.236Z,14.22
2016-10-03T09:44:43.258Z,14.17
2016-10-03T09:45:43.272Z,14.18
2016-10-03T09:46:43.296Z,14.29
2016-10-03T09:47:43.305Z,14.47
2016-10-03T09:48:43.325Z,14.45
2016-10-03T09:49:43.341Z,14.63
2016-10-03T09:50:43.364Z,14.68
2016-10-03T09:51:43.390Z,14.7
2016-10-03T09:52:43.409Z,14.69
2016-10-03T09:53:43.431Z,14.58
2016-10-03T09:54:43.453Z,14.63
2016-10-03T09:55:43.448Z,14.58
2016-10-03T09:56:43.479Z,14.62
2016-10-03T09:57:43.487Z,14.58
2016-10-03T09:58:43.526Z,14.47
2016-10-03T09:59:43.551Z,14.35
2016-10-03T10:00:43.571Z,14.4
2016-10-03T10:01:43.594Z,14.17
2016-10-03T10:02:43.601Z,14.15
2016-10-03T10:03:43.616Z,14.15
2016-10-03T10:04:43.649Z,14.12
2016-10-03T10:05:43.650Z,14.12
2016-10-03T10:06:43.674Z,14.17
2016-10-03T10:07:43.704Z,14.18
2016-10-03T10:08:43.721Z,14.22
2016-10-03T10:09:43.723Z,14.08
2016-10-03T10:10:43.754Z,14.04
2016-10-03T10:11:43.779Z,13.74
2016-10-03T10:12:43.792Z,13.74
2016-10-03T10:13:43.818Z,13.7
2016-10-03T10:14:43.823Z,13.68
2016-10-03T10:15:43.844Z,13.71
2016-10-03T10:16:43.892Z,13.72
2016-10-03T10:17:43.891Z,13.77
2016-10-03T10:18:43.909Z,13.85
2016-10-03T10:19:43.928Z,13.86
2016-10-03T10:20:43.980Z,13.86
2016-10-03T10:21:43.966Z,13.85
2016-10-03T10:22:43.985Z,13.87
2016-10-03T10:23:44.006Z,13.79
2016-10-03T10:24:44.029Z,13.71
2016-10-03T10:25:44.043Z,13.72
2016-10-03T10:26:44.047Z,13.74
2016-10-03T10:27:44.077Z,13.68
2016-10-03T10:28:44.096Z,13.7
2016-10-03T10:29:44.116Z,13.68
2016-10-03T10:30:44.132Z,13.72
2016-10-03T10:31:44.148Z,13.74
2016-10-03T10:32:44.184Z,13.71
2016-10-03T10:33:44.192Z,13.7
2016-10-03T10:34:44.211Z,13.7
2016-10-03T10:35:44.232Z,13.77
2016-10-03T10:36:44.241Z,13.67
2016-10-03T10:37:44.256Z,13.81
2016-10-03T10:38:44.293Z,13.9
2016-10-03T10:39:44.304Z,14.07
2016-10-03T10:40:44.328Z,14
2016-10-03T10:41:44.332Z,14.11
2016-10-03T10:42:44.357Z,14.23
2016-10-03T10:43:44.376Z,14.41
2016-10-03T10:44:44.390Z,14.2
2016-10-03T10:45:44.420Z,14.29
2016-10-03T10:46:44.441Z,14.33
2016-10-03T10:47:44.439Z,14.44
2016-10-03T10:48:44.472Z,14.36
2016-10-03T10:49:44.482Z,14.35
2016-10-03T10:50:44.512Z,14.36
2016-10-03T10:51:44.536Z,14.36
2016-10-03T10:52:44.543Z,14.29
2016-10-03T10:53:44.558Z,14.51
2016-10-03T10:54:44.585Z,14.5
2016-10-03T10:55:44.606Z,14.55
2016-10-03T10:56:44.620Z,14.72
2016-10-03T10:57:44.641Z,14.85
2016-10-03T10:58:44.657Z,14.92
2016-10-03T10:59:44.672Z,15.02
2016-10-03T11:00:44.694Z,14.96
2016-10-03T11:01:44.716Z,15.03
2016-10-03T11:02:44.739Z,15.11
2016-10-03T11:03:44.751Z,15.19
2016-10-03T11:04:44.780Z,15.18
2016-10-03T11:05:44.794Z,15.11
2016-10-03T11:06:44.813Z,15.18
2016-10-03T11:07:44.886Z,15.29
2016-10-03T11:08:44.874Z,15.43
2016-10-03T11:09:44.869Z,15.33
2016-10-03T11:10:44.901Z,15.42
2016-10-03T11:11:44.911Z,15.35
2016-10-03T11:12:44.932Z,15.49
2016-10-03T11:13:44.960Z,15.52
2016-10-03T11:14:44.972Z,15.52
2016-10-03T11:15:44.974Z,15.35
2016-10-03T11:16:45.012Z,15.52
2016-10-03T11:17:45.032Z,15.46
2016-10-03T11:18:45.040Z,15.42
2016-10-03T11:19:45.064Z,15.25
2016-10-03T11:20:45.085Z,15.14
2016-10-03T11:21:45.114Z,15.19
2016-10-03T11:22:45.141Z,15.19
2016-10-03T11:23:45.136Z,15.17
2016-10-03T11:24:45.171Z,15.09
2016-10-03T11:25:45.191Z,15.1
2016-10-03T11:26:45.213Z,14.96
2016-10-03T11:27:45.229Z,14.85
2016-10-03T11:28:45.250Z,14.85
2016-10-03T11:29:45.267Z,14.73
2016-10-03T11:30:45.287Z,14.78
2016-10-03T11:31:45.310Z,14.63
2016-10-03T11:32:45.321Z,14.79
2016-10-03T11:33:45.345Z,14.79
2016-10-03T11:34:45.359Z,14.82
2016-10-03T11:35:45.372Z,14.69
2016-10-03T11:36:45.396Z,14.65
2016-10-03T11:37:45.512Z,14.59
2016-10-03T11:38:45.450Z,14.54
2016-10-03T11:39:45.462Z,14.51
2016-10-03T11:40:45.476Z,14.36
2016-10-03T11:41:45.502Z,14.47
2016-10-03T11:42:45.499Z,14.37
2016-10-03T11:43:45.533Z,14.43
2016-10-03T11:44:45.543Z,14.26
2016-10-03T11:45:45.576Z,14.26
2016-10-03T11:46:45.577Z,14.4
2016-10-03T11:47:45.618Z,14.26
2016-10-03T11:48:45.626Z,14.44
2016-10-03T11:49:45.650Z,14.54
2016-10-03T11:50:45.662Z,14.58
2016-10-03T11:51:45.696Z,14.55
2016-10-03T11:52:45.702Z,14.63
2016-10-03T11:53:45.723Z,14.55
2016-10-03T11:54:45.743Z,14.69
2016-10-03T11:55:45.755Z,14.81
2016-10-03T11:56:45.780Z,14.77
2016-10-03T11:57:45.802Z,14.86
2016-10-03T11:58:45.810Z,14.86
2016-10-03T11:59:45.832Z,14.97
2016-10-03T12:00:45.851Z,15.06
2016-10-03T12:01:45.871Z,15.25
2016-10-03T12:02:45.900Z,15.35
2016-10-03T12:03:45.925Z,15.55
2016-10-03T12:04:45.922Z,15.57
2016-10-03T12:05:45.959Z,15.57
2016-10-03T12:06:45.969Z,15.58
2016-10-03T12:07:45.990Z,15.62
2016-10-03T12:08:46.013Z,15.58
2016-10-03T12:09:46.032Z,15.52
2016-10-03T12:10:46.045Z,15.43
2016-10-03T12:11:46.064Z,15.27
2016-10-03T12:12:46.084Z,15.24
2016-10-03T12:13:46.108Z,15.11
2016-10-03T12:14:46.139Z,15.07
2016-10-03T12:15:46.155Z,14.96
2016-10-03T12:16:46.166Z,14.88
2016-10-03T12:17:46.189Z,14.81
2016-10-03T12:18:46.204Z,14.85
2016-10-03T12:19:46.221Z,14.63
2016-10-03T12:20:46.244Z,14.62
2016-10-03T12:21:46.255Z,14.66
2016-10-03T12:22:46.295Z,14.65
2016-10-03T12:23:46.303Z,14.79
2016-10-03T12:24:46.320Z,14.72
2016-10-03T12:25:46.326Z,14.66
2016-10-03T12:26:46.350Z,14.72
2016-10-03T12:27:46.361Z,14.69
2016-10-03T12:28:46.396Z,14.73
2016-10-03T12:29:46.419Z,14.66
2016-10-03T12:30:46.432Z,14.68
2016-10-03T12:31:46.458Z,14.58
2016-10-03T12:32:46.476Z,14.54
2016-10-03T12:33:46.491Z,14.6
2016-10-03T12:34:46.512Z,14.69
2016-10-03T12:35:46.530Z,14.72
2016-10-03T12:36:46.553Z,14.73
2016-10-03T12:37:46.568Z,14.81
2016-10-03T12:38:46.597Z,14.85
2016-10-03T12:39:46.616Z,14.96
2016-10-03T12:40:46.620Z,14.99
2016-10-03T12:41:46.652Z,14.97
2016-10-03T12:42:46.679Z,15.07
2016-10-03T12:43:46.697Z,15.06
2016-10-03T12:44:46.689Z,15.11
2016-10-03T12:45:46.723Z,15.25
2016-10-03T12:46:46.747Z,15.29
2016-10-03T12:47:46.762Z,15.51
2016-10-03T12:48:46.786Z,15.58
2016-10-03T12:49:46.795Z,15.68
2016-10-03T12:50:46.828Z,15.92
2016-10-03T12:51:46.847Z,15.91
2016-10-03T12:52:46.857Z,16.12
2016-10-03T12:53:46.879Z,16.29
2016-10-03T12:54:46.883Z,16.28
2016-10-03T12:55:46.916Z,16.32
2016-10-03T12:56:46.946Z,16.26
2016-10-03T12:57:46.963Z,16.31
2016-10-03T12:58:46.991Z,16.29